sensor_id;sensor_type;location;lat;lon;timestamp;P1;durP1;ratioP1;P2;durP2;ratioP2
47762;SDS011;33526;42.690;23.322;2024-01-27T00:01:49;11.85;;;3.70;;
47762;SDS011;33526;42.690;23.322;2024-01-27T00:04:15;15.45;;;3.97;;
47762;SDS011;33526;42.690;23.322;2024-01-27T00:06:42;13.25;;;3.78;;
47762;SDS011;33526;42.690;23.322;2024-01-27T00:09:08;11.57;;;3.70;;
47762;SDS011;33526;42.690;23.322;2024-01-27T00:11:33;12.07;;;3.53;;
47762;SDS011;33526;42.690;23.322;2024-01-27T00:14:00;13.68;;;3.88;;
47762;SDS011;33526;42.690;23.322;2024-01-27T00:16:26;9.02;;;3.20;;
47762;SDS011;33526;42.690;23.322;2024-01-27T00:18:51;8.57;;;3.72;;
47762;SDS011;33526;42.690;23.322;2024-01-27T00:21:17;14.88;;;4.38;;
47762;SDS011;33526;42.690;23.322;2024-01-27T00:23:42;16.88;;;3.35;;
47762;SDS011;33526;42.690;23.322;2024-01-27T00:26:08;10.60;;;4.40;;
47762;SDS011;33526;42.690;23.322;2024-01-27T00:28:34;8.80;;;3.25;;
47762;SDS011;33526;42.690;23.322;2024-01-27T00:30:59;10.85;;;3.50;;
47762;SDS011;33526;42.690;23.322;2024-01-27T00:33:25;13.20;;;4.60;;
47762;SDS011;33526;42.690;23.322;2024-01-27T00:35:51;20.50;;;3.83;;
47762;SDS011;33526;42.690;23.322;2024-01-27T00:38:16;8.80;;;3.38;;
47762;SDS011;33526;42.690;23.322;2024-01-27T00:40:43;11.07;;;3.47;;
47762;SDS011;33526;42.690;23.322;2024-01-27T00:43:10;11.30;;;2.33;;
47762;SDS011;33526;42.690;23.322;2024-01-27T00:45:35;8.38;;;3.22;;
47762;SDS011;33526;42.690;23.322;2024-01-27T00:48:03;10.88;;;3.55;;
47762;SDS011;33526;42.690;23.322;2024-01-27T00:50:33;10.27;;;3.10;;
47762;SDS011;33526;42.690;23.322;2024-01-27T00:52:58;11.65;;;3.90;;
47762;SDS011;33526;42.690;23.322;2024-01-27T00:55:24;9.23;;;3.75;;
47762;SDS011;33526;42.690;23.322;2024-01-27T00:57:50;12.52;;;3.83;;
47762;SDS011;33526;42.690;23.322;2024-01-27T01:00:15;11.20;;;3.35;;
47762;SDS011;33526;42.690;23.322;2024-01-27T01:02:41;12.05;;;2.92;;
47762;SDS011;33526;42.690;23.322;2024-01-27T01:05:07;8.25;;;2.97;;
47762;SDS011;33526;42.690;23.322;2024-01-27T01:07:32;12.70;;;3.42;;
47762;SDS011;33526;42.690;23.322;2024-01-27T01:09:58;10.88;;;3.42;;
47762;SDS011;33526;42.690;23.322;2024-01-27T01:12:24;14.98;;;3.72;;
47762;SDS011;33526;42.690;23.322;2024-01-27T01:14:50;19.73;;;3.65;;
47762;SDS011;33526;42.690;23.322;2024-01-27T01:17:16;14.93;;;2.87;;
47762;SDS011;33526;42.690;23.322;2024-01-27T01:19:42;9.45;;;2.78;;
47762;SDS011;33526;42.690;23.322;2024-01-27T01:22:08;12.40;;;3.22;;
47762;SDS011;33526;42.690;23.322;2024-01-27T01:24:33;10.48;;;3.03;;
47762;SDS011;33526;42.690;23.322;2024-01-27T01:26:59;12.35;;;3.28;;
47762;SDS011;33526;42.690;23.322;2024-01-27T01:29:25;10.70;;;3.28;;
47762;SDS011;33526;42.690;23.322;2024-01-27T01:31:51;10.32;;;3.00;;
47762;SDS011;33526;42.690;23.322;2024-01-27T01:34:17;15.45;;;3.10;;
47762;SDS011;33526;42.690;23.322;2024-01-27T01:36:43;11.18;;;3.08;;
47762;SDS011;33526;42.690;23.322;2024-01-27T01:39:10;9.33;;;2.70;;
47762;SDS011;33526;42.690;23.322;2024-01-27T01:41:36;10.98;;;3.55;;
47762;SDS011;33526;42.690;23.322;2024-01-27T01:44:02;13.57;;;2.80;;
47762;SDS011;33526;42.690;23.322;2024-01-27T01:46:27;15.25;;;3.67;;
47762;SDS011;33526;42.690;23.322;2024-01-27T01:48:53;13.43;;;3.30;;
47762;SDS011;33526;42.690;23.322;2024-01-27T01:51:19;12.25;;;3.55;;
47762;SDS011;33526;42.690;23.322;2024-01-27T01:53:45;11.15;;;2.83;;
47762;SDS011;33526;42.690;23.322;2024-01-27T01:56:16;12.88;;;3.72;;
47762;SDS011;33526;42.690;23.322;2024-01-27T01:58:41;9.65;;;2.85;;
47762;SDS011;33526;42.690;23.322;2024-01-27T02:01:10;11.32;;;2.97;;
47762;SDS011;33526;42.690;23.322;2024-01-27T02:03:35;13.57;;;3.90;;
47762;SDS011;33526;42.690;23.322;2024-01-27T02:06:02;11.48;;;2.95;;
47762;SDS011;33526;42.690;23.322;2024-01-27T02:08:29;11.52;;;3.58;;
47762;SDS011;33526;42.690;23.322;2024-01-27T02:10:54;15.05;;;3.50;;
47762;SDS011;33526;42.690;23.322;2024-01-27T02:13:21;10.52;;;3.00;;
47762;SDS011;33526;42.690;23.322;2024-01-27T02:15:50;9.98;;;2.92;;
47762;SDS011;33526;42.690;23.322;2024-01-27T02:20:42;12.85;;;3.20;;
47762;SDS011;33526;42.690;23.322;2024-01-27T02:23:08;8.75;;;2.63;;
47762;SDS011;33526;42.690;23.322;2024-01-27T02:25:35;7.93;;;2.60;;
47762;SDS011;33526;42.690;23.322;2024-01-27T02:28:01;7.63;;;2.25;;
47762;SDS011;33526;42.690;23.322;2024-01-27T02:30:35;9.77;;;2.30;;
47762;SDS011;33526;42.690;23.322;2024-01-27T02:33:01;10.68;;;3.13;;
47762;SDS011;33526;42.690;23.322;2024-01-27T02:35:28;9.65;;;2.85;;
47762;SDS011;33526;42.690;23.322;2024-01-27T02:37:54;9.60;;;2.30;;
47762;SDS011;33526;42.690;23.322;2024-01-27T02:40:22;5.25;;;1.90;;
47762;SDS011;33526;42.690;23.322;2024-01-27T02:42:49;7.30;;;2.20;;
47762;SDS011;33526;42.690;23.322;2024-01-27T02:45:19;9.90;;;3.08;;
47762;SDS011;33526;42.690;23.322;2024-01-27T02:47:45;14.85;;;4.03;;
47762;SDS011;33526;42.690;23.322;2024-01-27T02:50:10;17.92;;;4.05;;
47762;SDS011;33526;42.690;23.322;2024-01-27T02:52:36;10.55;;;3.80;;
47762;SDS011;33526;42.690;23.322;2024-01-27T02:55:10;15.27;;;4.20;;
47762;SDS011;33526;42.690;23.322;2024-01-27T02:57:35;14.20;;;4.50;;
47762;SDS011;33526;42.690;23.322;2024-01-27T03:00:03;19.23;;;4.82;;
47762;SDS011;33526;42.690;23.322;2024-01-27T03:02:30;17.95;;;4.85;;
47762;SDS011;33526;42.690;23.322;2024-01-27T03:04:56;11.68;;;3.78;;
47762;SDS011;33526;42.690;23.322;2024-01-27T03:07:22;14.45;;;5.13;;
47762;SDS011;33526;42.690;23.322;2024-01-27T03:09:48;12.52;;;4.78;;
47762;SDS011;33526;42.690;23.322;2024-01-27T03:12:14;18.52;;;4.47;;
47762;SDS011;33526;42.690;23.322;2024-01-27T03:14:41;12.25;;;3.28;;
47762;SDS011;33526;42.690;23.322;2024-01-27T03:17:09;10.45;;;3.50;;
47762;SDS011;33526;42.690;23.322;2024-01-27T03:19:34;8.05;;;2.75;;
47762;SDS011;33526;42.690;23.322;2024-01-27T03:22:01;5.20;;;2.20;;
47762;SDS011;33526;42.690;23.322;2024-01-27T03:24:26;6.70;;;2.13;;
47762;SDS011;33526;42.690;23.322;2024-01-27T03:26:55;9.27;;;2.33;;
47762;SDS011;33526;42.690;23.322;2024-01-27T03:29:23;7.57;;;2.47;;
47762;SDS011;33526;42.690;23.322;2024-01-27T03:31:52;6.97;;;2.70;;
47762;SDS011;33526;42.690;23.322;2024-01-27T03:34:20;9.38;;;2.72;;
47762;SDS011;33526;42.690;23.322;2024-01-27T03:36:49;5.85;;;2.35;;
47762;SDS011;33526;42.690;23.322;2024-01-27T03:39:15;10.05;;;2.60;;
47762;SDS011;33526;42.690;23.322;2024-01-27T03:41:41;3.92;;;2.03;;
47762;SDS011;33526;42.690;23.322;2024-01-27T03:46:35;5.90;;;2.60;;
47762;SDS011;33526;42.690;23.322;2024-01-27T03:49:04;8.00;;;2.40;;
47762;SDS011;33526;42.690;23.322;2024-01-27T03:53:56;10.05;;;3.05;;
47762;SDS011;33526;42.690;23.322;2024-01-27T03:56:23;9.80;;;2.80;;
47762;SDS011;33526;42.690;23.322;2024-01-27T03:58:48;8.55;;;3.03;;
47762;SDS011;33526;42.690;23.322;2024-01-27T04:01:14;7.75;;;2.58;;
47762;SDS011;33526;42.690;23.322;2024-01-27T04:03:42;10.73;;;2.80;;
47762;SDS011;33526;42.690;23.322;2024-01-27T04:06:07;7.68;;;2.42;;
47762;SDS011;33526;42.690;23.322;2024-01-27T04:08:33;6.80;;;2.45;;
47762;SDS011;33526;42.690;23.322;2024-01-27T04:10:59;7.82;;;2.30;;
47762;SDS011;33526;42.690;23.322;2024-01-27T04:13:24;8.43;;;2.10;;
47762;SDS011;33526;42.690;23.322;2024-01-27T04:15:51;5.00;;;1.92;;
47762;SDS011;33526;42.690;23.322;2024-01-27T04:18:20;8.68;;;2.53;;
47762;SDS011;33526;42.690;23.322;2024-01-27T04:20:45;7.85;;;2.20;;
47762;SDS011;33526;42.690;23.322;2024-01-27T04:23:12;7.03;;;2.30;;
47762;SDS011;33526;42.690;23.322;2024-01-27T04:25:38;6.97;;;2.42;;
47762;SDS011;33526;42.690;23.322;2024-01-27T04:28:08;7.88;;;2.92;;
47762;SDS011;33526;42.690;23.322;2024-01-27T04:30:37;7.55;;;2.42;;
47762;SDS011;33526;42.690;23.322;2024-01-27T04:33:03;7.13;;;2.60;;
47762;SDS011;33526;42.690;23.322;2024-01-27T04:35:32;10.73;;;2.83;;
47762;SDS011;33526;42.690;23.322;2024-01-27T04:40:26;7.35;;;2.50;;
47762;SDS011;33526;42.690;23.322;2024-01-27T04:42:52;9.27;;;3.50;;
47762;SDS011;33526;42.690;23.322;2024-01-27T04:45:21;8.13;;;3.22;;
47762;SDS011;33526;42.690;23.322;2024-01-27T04:47:48;10.15;;;4.55;;
47762;SDS011;33526;42.690;23.322;2024-01-27T04:50:15;7.60;;;2.97;;
47762;SDS011;33526;42.690;23.322;2024-01-27T04:52:43;10.20;;;3.20;;
47762;SDS011;33526;42.690;23.322;2024-01-27T04:55:10;8.73;;;3.13;;
47762;SDS011;33526;42.690;23.322;2024-01-27T04:57:36;9.27;;;2.80;;
47762;SDS011;33526;42.690;23.322;2024-01-27T05:00:03;8.10;;;2.38;;
47762;SDS011;33526;42.690;23.322;2024-01-27T05:02:32;8.00;;;2.55;;
47762;SDS011;33526;42.690;23.322;2024-01-27T05:05:00;7.35;;;2.30;;
47762;SDS011;33526;42.690;23.322;2024-01-27T05:07:30;7.82;;;3.17;;
47762;SDS011;33526;42.690;23.322;2024-01-27T05:09:58;6.68;;;2.53;;
47762;SDS011;33526;42.690;23.322;2024-01-27T05:12:23;6.68;;;2.60;;
47762;SDS011;33526;42.690;23.322;2024-01-27T05:14:49;8.38;;;2.78;;
47762;SDS011;33526;42.690;23.322;2024-01-27T05:17:15;13.95;;;2.88;;
47762;SDS011;33526;42.690;23.322;2024-01-27T05:19:42;9.25;;;2.20;;
47762;SDS011;33526;42.690;23.322;2024-01-27T05:22:08;3.75;;;1.88;;
47762;SDS011;33526;42.690;23.322;2024-01-27T05:24:34;5.88;;;2.50;;
47762;SDS011;33526;42.690;23.322;2024-01-27T05:27:02;11.95;;;3.00;;
47762;SDS011;33526;42.690;23.322;2024-01-27T05:29:29;7.50;;;2.05;;
47762;SDS011;33526;42.690;23.322;2024-01-27T05:31:58;3.92;;;2.25;;
47762;SDS011;33526;42.690;23.322;2024-01-27T05:34:26;8.60;;;2.50;;
47762;SDS011;33526;42.690;23.322;2024-01-27T05:39:19;9.10;;;2.58;;
47762;SDS011;33526;42.690;23.322;2024-01-27T05:41:45;14.88;;;2.45;;
47762;SDS011;33526;42.690;23.322;2024-01-27T05:44:11;10.00;;;3.33;;
47762;SDS011;33526;42.690;23.322;2024-01-27T05:46:42;15.18;;;4.47;;
47762;SDS011;33526;42.690;23.322;2024-01-27T05:49:09;13.43;;;4.55;;
47762;SDS011;33526;42.690;23.322;2024-01-27T05:51:34;12.88;;;4.68;;
47762;SDS011;33526;42.690;23.322;2024-01-27T05:54:00;13.05;;;5.18;;
47762;SDS011;33526;42.690;23.322;2024-01-27T05:56:26;12.32;;;4.75;;
47762;SDS011;33526;42.690;23.322;2024-01-27T05:58:55;17.40;;;5.53;;
47762;SDS011;33526;42.690;23.322;2024-01-27T06:01:23;14.93;;;5.35;;
47762;SDS011;33526;42.690;23.322;2024-01-27T06:03:49;14.13;;;6.15;;
47762;SDS011;33526;42.690;23.322;2024-01-27T06:06:16;15.00;;;6.97;;
47762;SDS011;33526;42.690;23.322;2024-01-27T06:08:43;18.42;;;7.45;;
47762;SDS011;33526;42.690;23.322;2024-01-27T06:11:09;20.40;;;7.80;;
47762;SDS011;33526;42.690;23.322;2024-01-27T06:13:35;19.00;;;8.60;;
47762;SDS011;33526;42.690;23.322;2024-01-27T06:16:07;31.58;;;8.70;;
47762;SDS011;33526;42.690;23.322;2024-01-27T06:18:36;17.88;;;7.70;;
47762;SDS011;33526;42.690;23.322;2024-01-27T06:21:04;23.13;;;9.43;;
47762;SDS011;33526;42.690;23.322;2024-01-27T06:23:35;12.18;;;6.10;;
47762;SDS011;33526;42.690;23.322;2024-01-27T06:26:08;13.80;;;6.35;;
47762;SDS011;33526;42.690;23.322;2024-01-27T06:28:35;14.27;;;4.78;;
47762;SDS011;33526;42.690;23.322;2024-01-27T06:31:03;9.90;;;4.60;;
47762;SDS011;33526;42.690;23.322;2024-01-27T06:33:31;14.40;;;4.50;;
47762;SDS011;33526;42.690;23.322;2024-01-27T06:36:07;10.65;;;4.30;;
47762;SDS011;33526;42.690;23.322;2024-01-27T06:38:38;9.32;;;4.07;;
47762;SDS011;33526;42.690;23.322;2024-01-27T06:41:06;13.33;;;3.23;;
47762;SDS011;33526;42.690;23.322;2024-01-27T06:43:32;11.35;;;3.10;;
47762;SDS011;33526;42.690;23.322;2024-01-27T06:46:24;5.53;;;2.60;;
47762;SDS011;33526;42.690;23.322;2024-01-27T06:48:50;3.15;;;1.42;;
47762;SDS011;33526;42.690;23.322;2024-01-27T06:51:16;4.45;;;2.45;;
47762;SDS011;33526;42.690;23.322;2024-01-27T06:53:41;6.53;;;2.40;;
47762;SDS011;33526;42.690;23.322;2024-01-27T06:56:10;5.82;;;2.60;;
47762;SDS011;33526;42.690;23.322;2024-01-27T06:58:35;6.03;;;2.03;;
47762;SDS011;33526;42.690;23.322;2024-01-27T07:01:01;3.67;;;1.80;;
47762;SDS011;33526;42.690;23.322;2024-01-27T07:03:31;4.70;;;1.63;;
47762;SDS011;33526;42.690;23.322;2024-01-27T07:05:58;3.90;;;1.80;;
47762;SDS011;33526;42.690;23.322;2024-01-27T07:08:26;4.40;;;2.30;;
47762;SDS011;33526;42.690;23.322;2024-01-27T07:10:52;5.70;;;1.58;;
47762;SDS011;33526;42.690;23.322;2024-01-27T07:13:18;4.28;;;2.10;;
47762;SDS011;33526;42.690;23.322;2024-01-27T07:15:44;3.40;;;1.70;;
47762;SDS011;33526;42.690;23.322;2024-01-27T07:20:37;4.53;;;1.95;;
47762;SDS011;33526;42.690;23.322;2024-01-27T07:23:03;6.93;;;5.50;;
47762;SDS011;33526;42.690;23.322;2024-01-27T07:25:33;6.78;;;2.70;;
47762;SDS011;33526;42.690;23.322;2024-01-27T07:27:59;4.90;;;2.30;;
47762;SDS011;33526;42.690;23.322;2024-01-27T07:30:24;4.50;;;2.55;;
47762;SDS011;33526;42.690;23.322;2024-01-27T07:32:51;5.03;;;2.25;;
47762;SDS011;33526;42.690;23.322;2024-01-27T07:35:17;2.80;;;1.50;;
47762;SDS011;33526;42.690;23.322;2024-01-27T07:37:42;4.88;;;1.63;;
47762;SDS011;33526;42.690;23.322;2024-01-27T07:40:08;3.50;;;1.80;;
47762;SDS011;33526;42.690;23.322;2024-01-27T07:42:36;4.70;;;2.17;;
47762;SDS011;33526;42.690;23.322;2024-01-27T07:45:05;4.20;;;1.88;;
47762;SDS011;33526;42.690;23.322;2024-01-27T07:47:31;5.00;;;2.22;;
47762;SDS011;33526;42.690;23.322;2024-01-27T07:49:58;4.97;;;2.17;;
47762;SDS011;33526;42.690;23.322;2024-01-27T07:52:24;6.63;;;3.17;;
47762;SDS011;33526;42.690;23.322;2024-01-27T07:54:50;3.58;;;1.98;;
47762;SDS011;33526;42.690;23.322;2024-01-27T07:57:15;3.53;;;1.88;;
47762;SDS011;33526;42.690;23.322;2024-01-27T07:59:42;5.93;;;2.45;;
47762;SDS011;33526;42.690;23.322;2024-01-27T08:02:09;5.07;;;3.13;;
47762;SDS011;33526;42.690;23.322;2024-01-27T08:04:34;5.90;;;2.58;;
47762;SDS011;33526;42.690;23.322;2024-01-27T08:07:00;8.75;;;2.45;;
47762;SDS011;33526;42.690;23.322;2024-01-27T08:09:31;2.95;;;1.98;;
47762;SDS011;33526;42.690;23.322;2024-01-27T08:11:58;6.60;;;3.20;;
47762;SDS011;33526;42.690;23.322;2024-01-27T08:14:24;5.65;;;2.65;;
47762;SDS011;33526;42.690;23.322;2024-01-27T08:16:51;10.15;;;2.65;;
47762;SDS011;33526;42.690;23.322;2024-01-27T08:19:23;7.95;;;2.80;;
47762;SDS011;33526;42.690;23.322;2024-01-27T08:21:49;3.83;;;2.40;;
47762;SDS011;33526;42.690;23.322;2024-01-27T08:24:14;6.50;;;2.95;;
47762;SDS011;33526;42.690;23.322;2024-01-27T08:26:40;4.40;;;2.80;;
47762;SDS011;33526;42.690;23.322;2024-01-27T08:29:07;6.45;;;2.85;;
47762;SDS011;33526;42.690;23.322;2024-01-27T08:31:35;4.65;;;2.90;;
47762;SDS011;33526;42.690;23.322;2024-01-27T08:36:28;6.32;;;2.63;;
47762;SDS011;33526;42.690;23.322;2024-01-27T08:38:54;6.18;;;3.55;;
47762;SDS011;33526;42.690;23.322;2024-01-27T08:41:19;5.63;;;2.60;;
47762;SDS011;33526;42.690;23.322;2024-01-27T08:43:46;7.18;;;3.95;;
47762;SDS011;33526;42.690;23.322;2024-01-27T08:46:12;8.68;;;3.03;;
47762;SDS011;33526;42.690;23.322;2024-01-27T08:48:40;7.28;;;2.75;;
47762;SDS011;33526;42.690;23.322;2024-01-27T08:51:09;6.72;;;3.00;;
47762;SDS011;33526;42.690;23.322;2024-01-27T08:53:36;4.25;;;3.25;;
47762;SDS011;33526;42.690;23.322;2024-01-27T08:56:02;5.03;;;2.53;;
47762;SDS011;33526;42.690;23.322;2024-01-27T08:58:28;6.97;;;3.63;;
47762;SDS011;33526;42.690;23.322;2024-01-27T09:00:54;5.18;;;2.85;;
47762;SDS011;33526;42.690;23.322;2024-01-27T09:05:47;5.88;;;2.88;;
47762;SDS011;33526;42.690;23.322;2024-01-27T09:08:12;3.90;;;2.03;;
47762;SDS011;33526;42.690;23.322;2024-01-27T09:10:42;6.45;;;2.08;;
47762;SDS011;33526;42.690;23.322;2024-01-27T09:13:07;4.40;;;2.30;;
47762;SDS011;33526;42.690;23.322;2024-01-27T09:15:33;5.65;;;2.72;;
47762;SDS011;33526;42.690;23.322;2024-01-27T09:17:58;9.25;;;2.17;;
47762;SDS011;33526;42.690;23.322;2024-01-27T09:20:25;3.63;;;1.95;;
47762;SDS011;33526;42.690;23.322;2024-01-27T09:22:52;2.45;;;1.92;;
47762;SDS011;33526;42.690;23.322;2024-01-27T09:27:43;5.88;;;2.00;;
47762;SDS011;33526;42.690;23.322;2024-01-27T09:30:12;5.63;;;1.70;;
47762;SDS011;33526;42.690;23.322;2024-01-27T09:32:37;2.97;;;1.88;;
47762;SDS011;33526;42.690;23.322;2024-01-27T09:35:04;3.80;;;2.10;;
47762;SDS011;33526;42.690;23.322;2024-01-27T09:37:29;4.32;;;2.20;;
47762;SDS011;33526;42.690;23.322;2024-01-27T09:39:57;3.92;;;2.15;;
47762;SDS011;33526;42.690;23.322;2024-01-27T09:42:26;4.28;;;2.33;;
47762;SDS011;33526;42.690;23.322;2024-01-27T09:44:53;3.40;;;2.33;;
47762;SDS011;33526;42.690;23.322;2024-01-27T09:47:48;4.05;;;2.42;;
47762;SDS011;33526;42.690;23.322;2024-01-27T09:50:17;4.78;;;2.33;;
47762;SDS011;33526;42.690;23.322;2024-01-27T09:55:11;7.95;;;2.05;;
47762;SDS011;33526;42.690;23.322;2024-01-27T09:57:40;6.38;;;2.35;;
47762;SDS011;33526;42.690;23.322;2024-01-27T10:01:00;4.35;;;2.38;;
47762;SDS011;33526;42.690;23.322;2024-01-27T10:03:30;7.10;;;3.47;;
47762;SDS011;33526;42.690;23.322;2024-01-27T10:05:59;4.00;;;2.17;;
47762;SDS011;33526;42.690;23.322;2024-01-27T10:08:28;4.75;;;3.13;;
47762;SDS011;33526;42.690;23.322;2024-01-27T10:10:56;7.07;;;3.20;;
47762;SDS011;33526;42.690;23.322;2024-01-27T10:13:30;3.97;;;2.60;;
47762;SDS011;33526;42.690;23.322;2024-01-27T10:16:43;4.15;;;1.83;;
47762;SDS011;33526;42.690;23.322;2024-01-27T10:19:19;7.35;;;2.40;;
47762;SDS011;33526;42.690;23.322;2024-01-27T10:22:09;3.58;;;1.90;;
47762;SDS011;33526;42.690;23.322;2024-01-27T10:24:39;4.82;;;2.75;;
47762;SDS011;33526;42.690;23.322;2024-01-27T10:27:06;4.38;;;2.70;;
47762;SDS011;33526;42.690;23.322;2024-01-27T10:29:39;3.10;;;1.88;;
47762;SDS011;33526;42.690;23.322;2024-01-27T10:32:12;3.88;;;2.13;;
47762;SDS011;33526;42.690;23.322;2024-01-27T10:34:44;3.05;;;1.90;;
47762;SDS011;33526;42.690;23.322;2024-01-27T10:37:59;10.20;;;5.38;;
47762;SDS011;33526;42.690;23.322;2024-01-27T10:40:34;3.88;;;2.60;;
47762;SDS011;33526;42.690;23.322;2024-01-27T10:43:28;4.95;;;2.65;;
47762;SDS011;33526;42.690;23.322;2024-01-27T10:46:26;2.85;;;2.00;;
47762;SDS011;33526;42.690;23.322;2024-01-27T10:57:23;9.30;;;4.68;;
47762;SDS011;33526;42.690;23.322;2024-01-27T10:59:56;4.95;;;2.58;;
47762;SDS011;33526;42.690;23.322;2024-01-27T11:02:25;4.68;;;2.00;;
47762;SDS011;33526;42.690;23.322;2024-01-27T11:04:56;4.20;;;2.50;;
47762;SDS011;33526;42.690;23.322;2024-01-27T11:07:23;8.88;;;3.33;;
47762;SDS011;33526;42.690;23.322;2024-01-27T11:09:54;23.45;;;10.85;;
47762;SDS011;33526;42.690;23.322;2024-01-27T11:12:29;5.47;;;2.90;;
47762;SDS011;33526;42.690;23.322;2024-01-27T11:15:08;6.25;;;2.47;;
47762;SDS011;33526;42.690;23.322;2024-01-27T11:17:40;3.75;;;2.70;;
47762;SDS011;33526;42.690;23.322;2024-01-27T11:20:07;4.65;;;2.90;;
47762;SDS011;33526;42.690;23.322;2024-01-27T11:27:39;6.43;;;2.92;;
47762;SDS011;33526;42.690;23.322;2024-01-27T11:30:05;23.95;;;10.10;;
47762;SDS011;33526;42.690;23.322;2024-01-27T11:32:52;23.27;;;8.70;;
47762;SDS011;33526;42.690;23.322;2024-01-27T11:35:23;8.50;;;4.43;;
47762;SDS011;33526;42.690;23.322;2024-01-27T11:37:50;3.08;;;2.03;;
47762;SDS011;33526;42.690;23.322;2024-01-27T11:40:26;8.10;;;2.95;;
47762;SDS011;33526;42.690;23.322;2024-01-27T11:42:55;4.72;;;2.88;;
47762;SDS011;33526;42.690;23.322;2024-01-27T11:45:21;6.38;;;2.90;;
47762;SDS011;33526;42.690;23.322;2024-01-27T11:47:51;8.98;;;3.15;;
47762;SDS011;33526;42.690;23.322;2024-01-27T11:50:18;5.10;;;3.00;;
47762;SDS011;33526;42.690;23.322;2024-01-27T11:52:46;10.93;;;5.05;;
47762;SDS011;33526;42.690;23.322;2024-01-27T11:55:12;5.00;;;3.20;;
47762;SDS011;33526;42.690;23.322;2024-01-27T11:57:43;7.53;;;3.33;;
47762;SDS011;33526;42.690;23.322;2024-01-27T12:00:13;5.63;;;3.45;;
47762;SDS011;33526;42.690;23.322;2024-01-27T12:02:39;5.03;;;2.60;;
47762;SDS011;33526;42.690;23.322;2024-01-27T12:05:08;4.65;;;2.80;;
47762;SDS011;33526;42.690;23.322;2024-01-27T12:07:33;6.13;;;3.13;;
47762;SDS011;33526;42.690;23.322;2024-01-27T12:10:03;6.95;;;2.90;;
47762;SDS011;33526;42.690;23.322;2024-01-27T12:12:30;5.00;;;2.55;;
47762;SDS011;33526;42.690;23.322;2024-01-27T12:14:57;5.53;;;2.35;;
47762;SDS011;33526;42.690;23.322;2024-01-27T12:17:25;8.10;;;2.60;;
47762;SDS011;33526;42.690;23.322;2024-01-27T12:19:52;5.70;;;2.80;;
47762;SDS011;33526;42.690;23.322;2024-01-27T12:22:28;13.13;;;3.20;;
47762;SDS011;33526;42.690;23.322;2024-01-27T12:24:56;7.30;;;3.80;;
47762;SDS011;33526;42.690;23.322;2024-01-27T12:27:33;3.97;;;2.35;;
47762;SDS011;33526;42.690;23.322;2024-01-27T12:30:00;8.80;;;2.78;;
47762;SDS011;33526;42.690;23.322;2024-01-27T12:32:26;9.65;;;3.60;;
47762;SDS011;33526;42.690;23.322;2024-01-27T12:34:52;6.22;;;1.90;;
47762;SDS011;33526;42.690;23.322;2024-01-27T12:37:21;4.85;;;2.40;;
47762;SDS011;33526;42.690;23.322;2024-01-27T12:39:47;5.72;;;2.60;;
47762;SDS011;33526;42.690;23.322;2024-01-27T12:42:17;3.53;;;1.88;;
47762;SDS011;33526;42.690;23.322;2024-01-27T12:44:42;8.50;;;2.55;;
47762;SDS011;33526;42.690;23.322;2024-01-27T12:47:12;11.50;;;2.80;;
47762;SDS011;33526;42.690;23.322;2024-01-27T12:49:38;6.05;;;2.90;;
47762;SDS011;33526;42.690;23.322;2024-01-27T12:52:06;4.45;;;2.42;;
47762;SDS011;33526;42.690;23.322;2024-01-27T12:54:38;6.38;;;2.30;;
47762;SDS011;33526;42.690;23.322;2024-01-27T12:57:09;6.47;;;2.63;;
47762;SDS011;33526;42.690;23.322;2024-01-27T13:02:24;10.80;;;2.60;;
47762;SDS011;33526;42.690;23.322;2024-01-27T13:04:52;4.28;;;1.58;;
47762;SDS011;33526;42.690;23.322;2024-01-27T13:07:28;3.53;;;2.10;;
47762;SDS011;33526;42.690;23.322;2024-01-27T13:10:16;6.15;;;2.38;;
47762;SDS011;33526;42.690;23.322;2024-01-27T13:12:47;7.22;;;2.00;;
47762;SDS011;33526;42.690;23.322;2024-01-27T13:15:13;4.68;;;1.80;;
47762;SDS011;33526;42.690;23.322;2024-01-27T13:17:40;2.55;;;1.65;;
47762;SDS011;33526;42.690;23.322;2024-01-27T13:20:12;6.63;;;1.70;;
47762;SDS011;33526;42.690;23.322;2024-01-27T13:22:43;7.25;;;2.03;;
47762;SDS011;33526;42.690;23.322;2024-01-27T13:25:11;2.67;;;1.60;;
47762;SDS011;33526;42.690;23.322;2024-01-27T13:27:40;6.05;;;2.35;;
47762;SDS011;33526;42.690;23.322;2024-01-27T13:30:05;2.33;;;1.75;;
47762;SDS011;33526;42.690;23.322;2024-01-27T13:32:32;3.70;;;2.00;;
47762;SDS011;33526;42.690;23.322;2024-01-27T13:34:59;7.47;;;2.15;;
47762;SDS011;33526;42.690;23.322;2024-01-27T13:40:00;5.97;;;1.80;;
47762;SDS011;33526;42.690;23.322;2024-01-27T13:42:28;4.35;;;2.00;;
47762;SDS011;33526;42.690;23.322;2024-01-27T13:45:15;4.35;;;2.00;;
47762;SDS011;33526;42.690;23.322;2024-01-27T13:47:42;2.75;;;1.77;;
47762;SDS011;33526;42.690;23.322;2024-01-27T13:50:24;11.52;;;4.85;;
47762;SDS011;33526;42.690;23.322;2024-01-27T13:53:42;12.10;;;2.80;;
47762;SDS011;33526;42.690;23.322;2024-01-27T13:56:12;37.87;;;17.63;;
47762;SDS011;33526;42.690;23.322;2024-01-27T13:59:01;32.67;;;17.88;;
47762;SDS011;33526;42.690;23.322;2024-01-27T14:01:33;24.85;;;11.70;;
47762;SDS011;33526;42.690;23.322;2024-01-27T14:03:59;5.38;;;2.10;;
47762;SDS011;33526;42.690;23.322;2024-01-27T14:06:26;6.88;;;2.50;;
47762;SDS011;33526;42.690;23.322;2024-01-27T14:08:57;7.88;;;3.00;;
47762;SDS011;33526;42.690;23.322;2024-01-27T14:11:50;5.85;;;3.30;;
47762;SDS011;33526;42.690;23.322;2024-01-27T14:14:21;10.98;;;3.50;;
47762;SDS011;33526;42.690;23.322;2024-01-27T14:16:53;7.40;;;3.20;;
47762;SDS011;33526;42.690;23.322;2024-01-27T14:19:20;5.32;;;2.28;;
47762;SDS011;33526;42.690;23.322;2024-01-27T14:21:49;7.45;;;2.75;;
47762;SDS011;33526;42.690;23.322;2024-01-27T14:24:15;5.78;;;2.95;;
47762;SDS011;33526;42.690;23.322;2024-01-27T14:27:09;8.88;;;2.25;;
47762;SDS011;33526;42.690;23.322;2024-01-27T14:29:35;6.38;;;2.45;;
47762;SDS011;33526;42.690;23.322;2024-01-27T14:32:02;7.90;;;2.85;;
47762;SDS011;33526;42.690;23.322;2024-01-27T14:36:58;10.23;;;2.95;;
47762;SDS011;33526;42.690;23.322;2024-01-27T14:39:29;8.52;;;2.60;;
47762;SDS011;33526;42.690;23.322;2024-01-27T14:42:06;22.38;;;9.40;;
47762;SDS011;33526;42.690;23.322;2024-01-27T14:44:42;12.45;;;5.43;;
47762;SDS011;33526;42.690;23.322;2024-01-27T14:47:25;7.32;;;2.60;;
47762;SDS011;33526;42.690;23.322;2024-01-27T14:49:55;9.90;;;3.33;;
47762;SDS011;33526;42.690;23.322;2024-01-27T14:52:27;23.38;;;10.00;;
47762;SDS011;33526;42.690;23.322;2024-01-27T14:54:56;6.35;;;2.28;;
47762;SDS011;33526;42.690;23.322;2024-01-27T14:57:47;7.05;;;3.75;;
47762;SDS011;33526;42.690;23.322;2024-01-27T15:00:19;12.82;;;5.32;;
47762;SDS011;33526;42.690;23.322;2024-01-27T15:02:49;14.15;;;6.32;;
47762;SDS011;33526;42.690;23.322;2024-01-27T15:05:38;13.23;;;5.70;;
47762;SDS011;33526;42.690;23.322;2024-01-27T15:08:06;3.60;;;1.63;;
47762;SDS011;33526;42.690;23.322;2024-01-27T15:10:36;7.20;;;2.50;;
47762;SDS011;33526;42.690;23.322;2024-01-27T15:13:11;8.38;;;2.63;;
47762;SDS011;33526;42.690;23.322;2024-01-27T15:15:49;10.88;;;2.70;;
47762;SDS011;33526;42.690;23.322;2024-01-27T15:18:20;7.32;;;3.38;;
47762;SDS011;33526;42.690;23.322;2024-01-27T15:20:51;10.60;;;3.05;;
47762;SDS011;33526;42.690;23.322;2024-01-27T15:23:21;8.43;;;2.72;;
47762;SDS011;33526;42.690;23.322;2024-01-27T15:25:50;8.70;;;3.38;;
47762;SDS011;33526;42.690;23.322;2024-01-27T15:28:16;10.07;;;4.05;;